sensor_id;sensor_type;location;lat;lon;timestamp;P1;durP1;ratioP1;P2;durP2;ratioP2
77220;SDS011;66217;50.004;8.266;2023-04-24T00:00:12;3.17;;;1.55;;
77220;SDS011;66217;50.004;8.266;2023-04-24T00:02:41;2.20;;;1.50;;
77220;SDS011;66217;50.004;8.266;2023-04-24T00:05:11;5.05;;;1.75;;
77220;SDS011;66217;50.004;8.266;2023-04-24T00:07:40;1.38;;;1.20;;
77220;SDS011;66217;50.004;8.266;2023-04-24T00:10:06;2.10;;;1.70;;
77220;SDS011;66217;50.004;8.266;2023-04-24T00:12:33;1.95;;;1.40;;
77220;SDS011;66217;50.004;8.266;2023-04-24T00:14:58;4.57;;;1.50;;
77220;SDS011;66217;50.004;8.266;2023-04-24T00:17:23;2.00;;;1.35;;
77220;SDS011;66217;50.004;8.266;2023-04-24T00:19:49;3.30;;;1.40;;
77220;SDS011;66217;50.004;8.266;2023-04-24T00:22:23;4.45;;;1.55;;
77220;SDS011;66217;50.004;8.266;2023-04-24T00:24:49;4.07;;;1.58;;
77220;SDS011;66217;50.004;8.266;2023-04-24T00:27:15;3.67;;;1.65;;
77220;SDS011;66217;50.004;8.266;2023-04-24T00:29:40;4.28;;;1.40;;
77220;SDS011;66217;50.004;8.266;2023-04-24T00:32:06;2.50;;;1.50;;
77220;SDS011;66217;50.004;8.266;2023-04-24T00:34:31;1.85;;;1.30;;
77220;SDS011;66217;50.004;8.266;2023-04-24T00:36:57;2.97;;;1.42;;
77220;SDS011;66217;50.004;8.266;2023-04-24T00:39:23;3.15;;;1.17;;
77220;SDS011;66217;50.004;8.266;2023-04-24T00:41:48;3.88;;;1.38;;
77220;SDS011;66217;50.004;8.266;2023-04-24T00:44:16;2.17;;;1.30;;
77220;SDS011;66217;50.004;8.266;2023-04-24T00:46:41;5.90;;;1.75;;
77220;SDS011;66217;50.004;8.266;2023-04-24T00:49:07;3.35;;;1.40;;
77220;SDS011;66217;50.004;8.266;2023-04-24T00:51:33;1.92;;;1.20;;
77220;SDS011;66217;50.004;8.266;2023-04-24T00:53:59;2.15;;;1.45;;
77220;SDS011;66217;50.004;8.266;2023-04-24T00:56:25;7.80;;;1.70;;
77220;SDS011;66217;50.004;8.266;2023-04-24T00:58:51;1.23;;;1.13;;
77220;SDS011;66217;50.004;8.266;2023-04-24T01:01:17;4.38;;;1.38;;
77220;SDS011;66217;50.004;8.266;2023-04-24T01:03:45;3.08;;;1.50;;
77220;SDS011;66217;50.004;8.266;2023-04-24T01:06:11;1.60;;;1.02;;
77220;SDS011;66217;50.004;8.266;2023-04-24T01:08:37;4.82;;;1.30;;
77220;SDS011;66217;50.004;8.266;2023-04-24T01:11:03;5.95;;;1.33;;
77220;SDS011;66217;50.004;8.266;2023-04-24T01:13:30;3.15;;;1.50;;
77220;SDS011;66217;50.004;8.266;2023-04-24T01:15:56;2.35;;;1.42;;
77220;SDS011;66217;50.004;8.266;2023-04-24T01:18:22;3.53;;;1.17;;
77220;SDS011;66217;50.004;8.266;2023-04-24T01:20:49;1.73;;;1.33;;
77220;SDS011;66217;50.004;8.266;2023-04-24T01:23:16;2.08;;;1.40;;
77220;SDS011;66217;50.004;8.266;2023-04-24T01:25:43;8.35;;;1.58;;
77220;SDS011;66217;50.004;8.266;2023-04-24T01:28:08;2.00;;;1.20;;
77220;SDS011;66217;50.004;8.266;2023-04-24T01:30:34;3.67;;;1.40;;
77220;SDS011;66217;50.004;8.266;2023-04-24T01:32:59;5.65;;;1.38;;
77220;SDS011;66217;50.004;8.266;2023-04-24T01:35:25;4.50;;;1.40;;
77220;SDS011;66217;50.004;8.266;2023-04-24T01:37:51;2.58;;;1.27;;
77220;SDS011;66217;50.004;8.266;2023-04-24T01:40:16;3.28;;;1.33;;
77220;SDS011;66217;50.004;8.266;2023-04-24T01:42:42;4.07;;;1.50;;
77220;SDS011;66217;50.004;8.266;2023-04-24T01:45:08;3.45;;;1.38;;
77220;SDS011;66217;50.004;8.266;2023-04-24T01:47:35;5.60;;;1.42;;
77220;SDS011;66217;50.004;8.266;2023-04-24T01:50:01;6.18;;;1.38;;
77220;SDS011;66217;50.004;8.266;2023-04-24T01:52:27;3.15;;;1.50;;
77220;SDS011;66217;50.004;8.266;2023-04-24T01:54:53;5.75;;;1.38;;
77220;SDS011;66217;50.004;8.266;2023-04-24T01:57:21;4.90;;;1.90;;
77220;SDS011;66217;50.004;8.266;2023-04-24T01:59:47;3.65;;;1.60;;
77220;SDS011;66217;50.004;8.266;2023-04-24T02:02:13;2.72;;;1.45;;
77220;SDS011;66217;50.004;8.266;2023-04-24T02:04:39;4.85;;;1.17;;
77220;SDS011;66217;50.004;8.266;2023-04-24T02:07:04;3.67;;;1.67;;
77220;SDS011;66217;50.004;8.266;2023-04-24T02:09:31;4.65;;;1.40;;
77220;SDS011;66217;50.004;8.266;2023-04-24T02:11:56;2.80;;;1.40;;
77220;SDS011;66217;50.004;8.266;2023-04-24T02:14:23;2.47;;;1.23;;
77220;SDS011;66217;50.004;8.266;2023-04-24T02:16:48;2.10;;;1.27;;
77220;SDS011;66217;50.004;8.266;2023-04-24T02:19:13;1.95;;;1.42;;
77220;SDS011;66217;50.004;8.266;2023-04-24T02:21:39;2.95;;;1.50;;
77220;SDS011;66217;50.004;8.266;2023-04-24T02:24:07;3.72;;;1.40;;
77220;SDS011;66217;50.004;8.266;2023-04-24T02:26:32;1.60;;;1.20;;
77220;SDS011;66217;50.004;8.266;2023-04-24T02:28:58;2.70;;;1.35;;
77220;SDS011;66217;50.004;8.266;2023-04-24T02:31:23;2.60;;;1.52;;
77220;SDS011;66217;50.004;8.266;2023-04-24T02:33:49;5.00;;;1.70;;
77220;SDS011;66217;50.004;8.266;2023-04-24T02:36:15;3.60;;;1.40;;
77220;SDS011;66217;50.004;8.266;2023-04-24T02:38:40;4.18;;;1.58;;
77220;SDS011;66217;50.004;8.266;2023-04-24T02:41:05;5.32;;;1.73;;
77220;SDS011;66217;50.004;8.266;2023-04-24T02:43:32;2.10;;;1.45;;
77220;SDS011;66217;50.004;8.266;2023-04-24T02:45:58;4.25;;;1.45;;
77220;SDS011;66217;50.004;8.266;2023-04-24T02:48:24;2.80;;;1.38;;
77220;SDS011;66217;50.004;8.266;2023-04-24T02:50:50;3.75;;;1.67;;
77220;SDS011;66217;50.004;8.266;2023-04-24T02:53:16;2.83;;;1.42;;
77220;SDS011;66217;50.004;8.266;2023-04-24T02:55:42;4.18;;;1.33;;
77220;SDS011;66217;50.004;8.266;2023-04-24T02:58:07;1.23;;;1.10;;
77220;SDS011;66217;50.004;8.266;2023-04-24T03:00:33;3.70;;;1.40;;
77220;SDS011;66217;50.004;8.266;2023-04-24T03:02:59;2.83;;;1.30;;
77220;SDS011;66217;50.004;8.266;2023-04-24T03:05:24;1.50;;;1.40;;
77220;SDS011;66217;50.004;8.266;2023-04-24T03:07:50;3.97;;;1.50;;
77220;SDS011;66217;50.004;8.266;2023-04-24T03:10:17;2.67;;;1.52;;
77220;SDS011;66217;50.004;8.266;2023-04-24T03:12:43;2.17;;;1.20;;
77220;SDS011;66217;50.004;8.266;2023-04-24T03:15:08;4.85;;;1.50;;
77220;SDS011;66217;50.004;8.266;2023-04-24T03:17:36;2.22;;;1.30;;
77220;SDS011;66217;50.004;8.266;2023-04-24T03:20:02;1.60;;;1.17;;
77220;SDS011;66217;50.004;8.266;2023-04-24T03:22:28;1.10;;;1.02;;
77220;SDS011;66217;50.004;8.266;2023-04-24T03:24:54;3.22;;;1.42;;
77220;SDS011;66217;50.004;8.266;2023-04-24T03:27:20;2.88;;;1.40;;
77220;SDS011;66217;50.004;8.266;2023-04-24T03:29:59;4.55;;;1.38;;
77220;SDS011;66217;50.004;8.266;2023-04-24T03:32:33;4.45;;;1.63;;
77220;SDS011;66217;50.004;8.266;2023-04-24T03:34:59;1.60;;;1.40;;
77220;SDS011;66217;50.004;8.266;2023-04-24T03:37:26;3.55;;;1.33;;
77220;SDS011;66217;50.004;8.266;2023-04-24T03:40:02;2.55;;;1.60;;
77220;SDS011;66217;50.004;8.266;2023-04-24T03:42:28;1.55;;;1.20;;
77220;SDS011;66217;50.004;8.266;2023-04-24T03:44:55;2.78;;;1.23;;
77220;SDS011;66217;50.004;8.266;2023-04-24T03:47:23;2.42;;;1.45;;
77220;SDS011;66217;50.004;8.266;2023-04-24T03:49:50;4.18;;;1.25;;
77220;SDS011;66217;50.004;8.266;2023-04-24T03:52:16;2.25;;;1.25;;
77220;SDS011;66217;50.004;8.266;2023-04-24T03:54:41;1.95;;;1.40;;
77220;SDS011;66217;50.004;8.266;2023-04-24T03:57:07;3.90;;;1.80;;
77220;SDS011;66217;50.004;8.266;2023-04-24T03:59:35;3.40;;;1.38;;
77220;SDS011;66217;50.004;8.266;2023-04-24T04:02:12;3.63;;;1.52;;
77220;SDS011;66217;50.004;8.266;2023-04-24T04:04:38;1.40;;;1.30;;
77220;SDS011;66217;50.004;8.266;2023-04-24T04:07:03;1.42;;;1.30;;
77220;SDS011;66217;50.004;8.266;2023-04-24T04:09:30;1.83;;;1.30;;
77220;SDS011;66217;50.004;8.266;2023-04-24T04:11:56;1.58;;;1.38;;
77220;SDS011;66217;50.004;8.266;2023-04-24T04:14:21;2.53;;;1.60;;
77220;SDS011;66217;50.004;8.266;2023-04-24T04:16:48;1.80;;;1.38;;
77220;SDS011;66217;50.004;8.266;2023-04-24T04:19:13;2.40;;;1.50;;
77220;SDS011;66217;50.004;8.266;2023-04-24T04:21:39;2.22;;;1.55;;
77220;SDS011;66217;50.004;8.266;2023-04-24T04:24:15;1.88;;;1.60;;
77220;SDS011;66217;50.004;8.266;2023-04-24T04:26:43;4.68;;;1.45;;
77220;SDS011;66217;50.004;8.266;2023-04-24T04:29:15;4.22;;;1.73;;
77220;SDS011;66217;50.004;8.266;2023-04-24T04:31:42;3.00;;;1.80;;
77220;SDS011;66217;50.004;8.266;2023-04-24T04:34:12;2.90;;;1.65;;
77220;SDS011;66217;50.004;8.266;2023-04-24T04:36:39;3.25;;;1.70;;
77220;SDS011;66217;50.004;8.266;2023-04-24T04:39:24;3.55;;;1.92;;
77220;SDS011;66217;50.004;8.266;2023-04-24T04:41:55;2.72;;;1.90;;
77220;SDS011;66217;50.004;8.266;2023-04-24T04:44:25;3.85;;;2.08;;
77220;SDS011;66217;50.004;8.266;2023-04-24T04:46:53;3.20;;;2.10;;
77220;SDS011;66217;50.004;8.266;2023-04-24T04:49:30;2.97;;;1.98;;
77220;SDS011;66217;50.004;8.266;2023-04-24T04:51:56;3.17;;;2.20;;
77220;SDS011;66217;50.004;8.266;2023-04-24T04:54:24;5.85;;;2.08;;
77220;SDS011;66217;50.004;8.266;2023-04-24T04:56:50;3.47;;;2.40;;
77220;SDS011;66217;50.004;8.266;2023-04-24T04:59:15;2.97;;;1.95;;
77220;SDS011;66217;50.004;8.266;2023-04-24T05:01:41;6.75;;;2.50;;
77220;SDS011;66217;50.004;8.266;2023-04-24T05:04:07;8.60;;;2.78;;
77220;SDS011;66217;50.004;8.266;2023-04-24T05:06:33;4.55;;;2.10;;
77220;SDS011;66217;50.004;8.266;2023-04-24T05:08:58;6.82;;;2.30;;
77220;SDS011;66217;50.004;8.266;2023-04-24T05:11:42;8.23;;;2.55;;
77220;SDS011;66217;50.004;8.266;2023-04-24T05:14:08;3.60;;;2.38;;
77220;SDS011;66217;50.004;8.266;2023-04-24T05:16:36;4.25;;;2.47;;
77220;SDS011;66217;50.004;8.266;2023-04-24T05:19:03;3.95;;;2.42;;
77220;SDS011;66217;50.004;8.266;2023-04-24T05:21:33;3.63;;;2.50;;
77220;SDS011;66217;50.004;8.266;2023-04-24T05:23:59;4.80;;;2.35;;
77220;SDS011;66217;50.004;8.266;2023-04-24T05:26:43;4.53;;;2.33;;
77220;SDS011;66217;50.004;8.266;2023-04-24T05:29:09;3.95;;;2.20;;
77220;SDS011;66217;50.004;8.266;2023-04-24T05:31:34;6.50;;;2.70;;
77220;SDS011;66217;50.004;8.266;2023-04-24T05:34:00;4.97;;;2.95;;
77220;SDS011;66217;50.004;8.266;2023-04-24T05:36:26;3.83;;;2.55;;
77220;SDS011;66217;50.004;8.266;2023-04-24T05:38:52;3.72;;;2.70;;
77220;SDS011;66217;50.004;8.266;2023-04-24T05:41:17;7.18;;;2.60;;
77220;SDS011;66217;50.004;8.266;2023-04-24T05:43:43;3.72;;;2.50;;
77220;SDS011;66217;50.004;8.266;2023-04-24T05:46:08;3.97;;;2.88;;
77220;SDS011;66217;50.004;8.266;2023-04-24T05:48:34;7.40;;;2.40;;
77220;SDS011;66217;50.004;8.266;2023-04-24T05:51:02;4.97;;;2.80;;
77220;SDS011;66217;50.004;8.266;2023-04-24T05:53:27;4.47;;;2.50;;
77220;SDS011;66217;50.004;8.266;2023-04-24T05:55:53;4.80;;;3.33;;
77220;SDS011;66217;50.004;8.266;2023-04-24T05:58:19;4.05;;;2.45;;
77220;SDS011;66217;50.004;8.266;2023-04-24T06:00:46;4.22;;;2.60;;
77220;SDS011;66217;50.004;8.266;2023-04-24T06:03:11;3.83;;;2.60;;
77220;SDS011;66217;50.004;8.266;2023-04-24T06:05:37;5.18;;;2.47;;
77220;SDS011;66217;50.004;8.266;2023-04-24T06:08:03;4.40;;;2.65;;
77220;SDS011;66217;50.004;8.266;2023-04-24T06:10:33;4.93;;;2.90;;
77220;SDS011;66217;50.004;8.266;2023-04-24T06:12:58;6.47;;;3.08;;
77220;SDS011;66217;50.004;8.266;2023-04-24T06:15:29;9.25;;;3.30;;
77220;SDS011;66217;50.004;8.266;2023-04-24T06:17:59;4.57;;;2.75;;
77220;SDS011;66217;50.004;8.266;2023-04-24T06:20:25;5.22;;;3.17;;
77220;SDS011;66217;50.004;8.266;2023-04-24T06:22:50;4.00;;;2.78;;
77220;SDS011;66217;50.004;8.266;2023-04-24T06:25:16;5.07;;;2.88;;
77220;SDS011;66217;50.004;8.266;2023-04-24T06:27:42;3.78;;;2.90;;
77220;SDS011;66217;50.004;8.266;2023-04-24T06:30:08;4.63;;;2.78;;
77220;SDS011;66217;50.004;8.266;2023-04-24T06:32:33;5.47;;;2.58;;
77220;SDS011;66217;50.004;8.266;2023-04-24T06:34:59;4.63;;;2.97;;
77220;SDS011;66217;50.004;8.266;2023-04-24T06:37:24;3.97;;;2.70;;
77220;SDS011;66217;50.004;8.266;2023-04-24T06:39:50;3.45;;;2.65;;
77220;SDS011;66217;50.004;8.266;2023-04-24T06:42:16;5.38;;;2.83;;
77220;SDS011;66217;50.004;8.266;2023-04-24T06:44:42;3.92;;;2.78;;
77220;SDS011;66217;50.004;8.266;2023-04-24T06:47:08;3.95;;;2.63;;
77220;SDS011;66217;50.004;8.266;2023-04-24T06:49:38;4.03;;;2.63;;
77220;SDS011;66217;50.004;8.266;2023-04-24T06:52:04;4.75;;;3.05;;
77220;SDS011;66217;50.004;8.266;2023-04-24T06:54:30;4.78;;;2.88;;
77220;SDS011;66217;50.004;8.266;2023-04-24T06:56:56;7.05;;;2.42;;
77220;SDS011;66217;50.004;8.266;2023-04-24T06:59:23;5.13;;;2.75;;
77220;SDS011;66217;50.004;8.266;2023-04-24T07:01:49;4.55;;;2.45;;
77220;SDS011;66217;50.004;8.266;2023-04-24T07:04:14;3.63;;;2.40;;
77220;SDS011;66217;50.004;8.266;2023-04-24T07:06:40;5.53;;;2.33;;
77220;SDS011;66217;50.004;8.266;2023-04-24T07:09:05;8.45;;;2.70;;
77220;SDS011;66217;50.004;8.266;2023-04-24T07:11:30;4.13;;;2.78;;
77220;SDS011;66217;50.004;8.266;2023-04-24T07:13:56;3.33;;;2.50;;
77220;SDS011;66217;50.004;8.266;2023-04-24T07:16:22;4.43;;;2.80;;
77220;SDS011;66217;50.004;8.266;2023-04-24T07:18:47;4.57;;;2.55;;
77220;SDS011;66217;50.004;8.266;2023-04-24T07:21:12;3.72;;;2.25;;
77220;SDS011;66217;50.004;8.266;2023-04-24T07:23:38;3.90;;;2.75;;
77220;SDS011;66217;50.004;8.266;2023-04-24T07:26:03;4.45;;;2.47;;
77220;SDS011;66217;50.004;8.266;2023-04-24T07:28:29;4.15;;;2.90;;
77220;SDS011;66217;50.004;8.266;2023-04-24T07:30:57;4.97;;;2.45;;
77220;SDS011;66217;50.004;8.266;2023-04-24T07:33:25;3.83;;;2.45;;
77220;SDS011;66217;50.004;8.266;2023-04-24T07:35:55;4.75;;;2.15;;
77220;SDS011;66217;50.004;8.266;2023-04-24T07:38:21;3.60;;;2.33;;
77220;SDS011;66217;50.004;8.266;2023-04-24T07:40:47;3.17;;;2.38;;
77220;SDS011;66217;50.004;8.266;2023-04-24T07:43:13;3.28;;;2.05;;
77220;SDS011;66217;50.004;8.266;2023-04-24T07:45:39;4.05;;;2.58;;
77220;SDS011;66217;50.004;8.266;2023-04-24T07:48:04;4.00;;;2.63;;
77220;SDS011;66217;50.004;8.266;2023-04-24T07:50:30;4.85;;;2.40;;
77220;SDS011;66217;50.004;8.266;2023-04-24T07:52:56;5.18;;;2.78;;
77220;SDS011;66217;50.004;8.266;2023-04-24T07:55:21;3.88;;;2.33;;
77220;SDS011;66217;50.004;8.266;2023-04-24T07:57:47;5.60;;;2.67;;
77220;SDS011;66217;50.004;8.266;2023-04-24T08:00:12;4.75;;;2.20;;
77220;SDS011;66217;50.004;8.266;2023-04-24T08:02:38;3.42;;;2.10;;
77220;SDS011;66217;50.004;8.266;2023-04-24T08:05:06;3.28;;;2.40;;
77220;SDS011;66217;50.004;8.266;2023-04-24T08:07:32;3.97;;;2.55;;
77220;SDS011;66217;50.004;8.266;2023-04-24T08:09:57;3.72;;;2.50;;
77220;SDS011;66217;50.004;8.266;2023-04-24T08:12:24;4.38;;;2.40;;
77220;SDS011;66217;50.004;8.266;2023-04-24T08:14:50;5.55;;;2.88;;
77220;SDS011;66217;50.004;8.266;2023-04-24T08:17:16;4.28;;;2.42;;
77220;SDS011;66217;50.004;8.266;2023-04-24T08:19:43;5.70;;;2.53;;
77220;SDS011;66217;50.004;8.266;2023-04-24T08:22:12;3.67;;;2.33;;
77220;SDS011;66217;50.004;8.266;2023-04-24T08:24:38;3.88;;;2.35;;
77220;SDS011;66217;50.004;8.266;2023-04-24T08:27:03;5.38;;;2.70;;
77220;SDS011;66217;50.004;8.266;2023-04-24T08:29:29;4.57;;;2.47;;
77220;SDS011;66217;50.004;8.266;2023-04-24T08:31:54;3.67;;;2.25;;
77220;SDS011;66217;50.004;8.266;2023-04-24T08:34:20;6.25;;;2.45;;
77220;SDS011;66217;50.004;8.266;2023-04-24T08:36:46;4.18;;;2.60;;
77220;SDS011;66217;50.004;8.266;2023-04-24T08:39:11;2.90;;;2.35;;
77220;SDS011;66217;50.004;8.266;2023-04-24T08:41:37;3.03;;;2.20;;
77220;SDS011;66217;50.004;8.266;2023-04-24T08:44:03;3.53;;;2.50;;
77220;SDS011;66217;50.004;8.266;2023-04-24T08:46:30;2.72;;;2.00;;
77220;SDS011;66217;50.004;8.266;2023-04-24T08:48:55;4.32;;;2.20;;
77220;SDS011;66217;50.004;8.266;2023-04-24T08:51:21;4.88;;;2.25;;
77220;SDS011;66217;50.004;8.266;2023-04-24T08:53:47;3.88;;;2.83;;
77220;SDS011;66217;50.004;8.266;2023-04-24T08:56:13;5.45;;;2.40;;
77220;SDS011;66217;50.004;8.266;2023-04-24T08:58:39;3.20;;;2.20;;
77220;SDS011;66217;50.004;8.266;2023-04-24T09:01:04;4.15;;;2.38;;
77220;SDS011;66217;50.004;8.266;2023-04-24T09:03:32;5.47;;;3.03;;
77220;SDS011;66217;50.004;8.266;2023-04-24T09:05:58;7.28;;;2.60;;
77220;SDS011;66217;50.004;8.266;2023-04-24T09:08:24;3.25;;;2.10;;
77220;SDS011;66217;50.004;8.266;2023-04-24T09:10:51;6.25;;;2.20;;
77220;SDS011;66217;50.004;8.266;2023-04-24T09:13:17;3.55;;;2.28;;
77220;SDS011;66217;50.004;8.266;2023-04-24T09:15:44;3.85;;;2.35;;
77220;SDS011;66217;50.004;8.266;2023-04-24T09:18:09;2.95;;;2.00;;
77220;SDS011;66217;50.004;8.266;2023-04-24T09:20:35;4.43;;;2.30;;
77220;SDS011;66217;50.004;8.266;2023-04-24T09:23:28;6.00;;;1.98;;
77220;SDS011;66217;50.004;8.266;2023-04-24T09:25:57;3.00;;;2.10;;
77220;SDS011;66217;50.004;8.266;2023-04-24T09:28:30;4.97;;;1.98;;
77220;SDS011;66217;50.004;8.266;2023-04-24T09:31:12;3.10;;;2.20;;
77220;SDS011;66217;50.004;8.266;2023-04-24T09:33:42;4.65;;;2.20;;
77220;SDS011;66217;50.004;8.266;2023-04-24T09:36:18;4.15;;;2.05;;
77220;SDS011;66217;50.004;8.266;2023-04-24T09:38:44;3.33;;;1.80;;
77220;SDS011;66217;50.004;8.266;2023-04-24T09:41:13;4.25;;;1.98;;
77220;SDS011;66217;50.004;8.266;2023-04-24T09:43:38;2.45;;;1.90;;
77220;SDS011;66217;50.004;8.266;2023-04-24T09:46:05;2.50;;;1.90;;
77220;SDS011;66217;50.004;8.266;2023-04-24T09:48:32;2.40;;;1.70;;
77220;SDS011;66217;50.004;8.266;2023-04-24T09:50:59;4.30;;;2.17;;
77220;SDS011;66217;50.004;8.266;2023-04-24T09:53:29;3.13;;;1.98;;
77220;SDS011;66217;50.004;8.266;2023-04-24T09:55:55;3.00;;;1.80;;
77220;SDS011;66217;50.004;8.266;2023-04-24T09:58:24;3.92;;;1.88;;
77220;SDS011;66217;50.004;8.266;2023-04-24T10:00:55;2.58;;;1.40;;
77220;SDS011;66217;50.004;8.266;2023-04-24T10:03:25;3.33;;;1.70;;
77220;SDS011;66217;50.004;8.266;2023-04-24T10:05:52;3.13;;;1.67;;
77220;SDS011;66217;50.004;8.266;2023-04-24T10:08:18;3.03;;;1.90;;
77220;SDS011;66217;50.004;8.266;2023-04-24T10:10:45;4.00;;;1.80;;
77220;SDS011;66217;50.004;8.266;2023-04-24T10:13:11;2.53;;;1.88;;
77220;SDS011;66217;50.004;8.266;2023-04-24T10:15:38;5.00;;;2.00;;
77220;SDS011;66217;50.004;8.266;2023-04-24T10:18:05;3.53;;;2.10;;
77220;SDS011;66217;50.004;8.266;2023-04-24T10:20:34;3.10;;;2.13;;
77220;SDS011;66217;50.004;8.266;2023-04-24T10:23:02;3.92;;;2.28;;
77220;SDS011;66217;50.004;8.266;2023-04-24T10:25:29;6.50;;;2.13;;
77220;SDS011;66217;50.004;8.266;2023-04-24T10:27:55;4.95;;;2.38;;
77220;SDS011;66217;50.004;8.266;2023-04-24T10:30:28;2.70;;;1.85;;
77220;SDS011;66217;50.004;8.266;2023-04-24T10:32:55;3.00;;;2.00;;
77220;SDS011;66217;50.004;8.266;2023-04-24T10:35:21;4.15;;;2.00;;
77220;SDS011;66217;50.004;8.266;2023-04-24T10:37:50;5.10;;;2.30;;
77220;SDS011;66217;50.004;8.266;2023-04-24T10:40:29;3.35;;;2.20;;
77220;SDS011;66217;50.004;8.266;2023-04-24T10:42:56;3.00;;;2.30;;
77220;SDS011;66217;50.004;8.266;2023-04-24T10:45:22;3.00;;;2.20;;
77220;SDS011;66217;50.004;8.266;2023-04-24T10:47:52;2.20;;;1.70;;
77220;SDS011;66217;50.004;8.266;2023-04-24T10:50:18;3.13;;;1.60;;
77220;SDS011;66217;50.004;8.266;2023-04-24T10:52:47;2.80;;;1.73;;
77220;SDS011;66217;50.004;8.266;2023-04-24T10:55:13;3.22;;;1.50;;
77220;SDS011;66217;50.004;8.266;2023-04-24T10:58:01;2.10;;;1.55;;
77220;SDS011;66217;50.004;8.266;2023-04-24T11:00:28;1.83;;;1.52;;
77220;SDS011;66217;50.004;8.266;2023-04-24T11:02:54;1.80;;;1.30;;
77220;SDS011;66217;50.004;8.266;2023-04-24T11:05:20;2.70;;;1.42;;
77220;SDS011;66217;50.004;8.266;2023-04-24T11:10:46;2.67;;;1.40;;
77220;SDS011;66217;50.004;8.266;2023-04-24T11:13:15;2.08;;;1.30;;
77220;SDS011;66217;50.004;8.266;2023-04-24T11:15:41;1.83;;;1.40;;
77220;SDS011;66217;50.004;8.266;2023-04-24T11:18:13;3.22;;;1.63;;
77220;SDS011;66217;50.004;8.266;2023-04-24T11:20:42;2.15;;;1.48;;
77220;SDS011;66217;50.004;8.266;2023-04-24T11:23:12;3.05;;;1.80;;
77220;SDS011;66217;50.004;8.266;2023-04-24T11:25:38;4.22;;;1.77;;
77220;SDS011;66217;50.004;8.266;2023-04-24T11:28:03;2.10;;;1.60;;
77220;SDS011;66217;50.004;8.266;2023-04-24T11:30:31;1.70;;;1.20;;
77220;SDS011;66217;50.004;8.266;2023-04-24T11:33:01;1.98;;;1.52;;
77220;SDS011;66217;50.004;8.266;2023-04-24T11:35:29;1.70;;;1.23;;
77220;SDS011;66217;50.004;8.266;2023-04-24T11:37:55;1.77;;;1.42;;
77220;SDS011;66217;50.004;8.266;2023-04-24T11:40:22;1.60;;;1.35;;
77220;SDS011;66217;50.004;8.266;2023-04-24T11:42:48;1.80;;;1.58;;
77220;SDS011;66217;50.004;8.266;2023-04-24T11:45:16;2.17;;;1.70;;
77220;SDS011;66217;50.004;8.266;2023-04-24T11:47:43;2.13;;;1.58;;
77220;SDS011;66217;50.004;8.266;2023-04-24T11:50:12;2.35;;;1.80;;
77220;SDS011;66217;50.004;8.266;2023-04-24T11:52:40;4.00;;;2.13;;
77220;SDS011;66217;50.004;8.266;2023-04-24T11:55:07;2.72;;;1.90;;
77220;SDS011;66217;50.004;8.266;2023-04-24T11:57:39;4.57;;;1.73;;
77220;SDS011;66217;50.004;8.266;2023-04-24T12:00:14;3.97;;;1.80;;
77220;SDS011;66217;50.004;8.266;2023-04-24T12:02:41;4.95;;;1.70;;
77220;SDS011;66217;50.004;8.266;2023-04-24T12:05:06;4.05;;;2.08;;
77220;SDS011;66217;50.004;8.266;2023-04-24T12:07:36;6.20;;;2.28;;
77220;SDS011;66217;50.004;8.266;2023-04-24T12:10:07;4.28;;;2.10;;
77220;SDS011;66217;50.004;8.266;2023-04-24T12:12:34;4.57;;;2.10;;
77220;SDS011;66217;50.004;8.266;2023-04-24T12:14:59;3.53;;;2.05;;
77220;SDS011;66217;50.004;8.266;2023-04-24T12:17:29;4.97;;;2.53;;
77220;SDS011;66217;50.004;8.266;2023-04-24T12:20:00;4.63;;;2.40;;
77220;SDS011;66217;50.004;8.266;2023-04-24T12:22:48;3.63;;;2.60;;
77220;SDS011;66217;50.004;8.266;2023-04-24T12:25:16;5.57;;;2.10;;
77220;SDS011;66217;50.004;8.266;2023-04-24T12:30:15;3.70;;;2.35;;
77220;SDS011;66217;50.004;8.266;2023-04-24T12:32:42;4.05;;;2.35;;
77220;SDS011;66217;50.004;8.266;2023-04-24T12:35:08;3.47;;;2.17;;
77220;SDS011;66217;50.004;8.266;2023-04-24T12:37:34;3.97;;;2.15;;
77220;SDS011;66217;50.004;8.266;2023-04-24T12:42:27;9.82;;;2.58;;
77220;SDS011;66217;50.004;8.266;2023-04-24T12:44:56;3.78;;;2.10;;
77220;SDS011;66217;50.004;8.266;2023-04-24T12:47:24;3.42;;;2.20;;
77220;SDS011;66217;50.004;8.266;2023-04-24T12:49:50;5.00;;;2.20;;
77220;SDS011;66217;50.004;8.266;2023-04-24T12:52:17;3.97;;;3.33;;
77220;SDS011;66217;50.004;8.266;2023-04-24T12:54:45;5.47;;;2.45;;
77220;SDS011;66217;50.004;8.266;2023-04-24T12:57:11;5.30;;;2.70;;
77220;SDS011;66217;50.004;8.266;2023-04-24T12:59:36;4.30;;;2.55;;
77220;SDS011;66217;50.004;8.266;2023-04-24T13:02:01;6.25;;;2.55;;
77220;SDS011;66217;50.004;8.266;2023-04-24T13:04:27;4.18;;;2.38;;
77220;SDS011;66217;50.004;8.266;2023-04-24T13:06:52;5.22;;;2.80;;
77220;SDS011;66217;50.004;8.266;2023-04-24T13:09:18;5.53;;;2.67;;
77220;SDS011;66217;50.004;8.266;2023-04-24T13:11:43;4.32;;;2.20;;
77220;SDS011;66217;50.004;8.266;2023-04-24T13:14:08;4.47;;;2.70;;
77220;SDS011;66217;50.004;8.266;2023-04-24T13:16:34;4.65;;;2.67;;
77220;SDS011;66217;50.004;8.266;2023-04-24T13:18:59;8.45;;;2.75;;
77220;SDS011;66217;50.004;8.266;2023-04-24T13:21:25;5.95;;;2.92;;
77220;SDS011;66217;50.004;8.266;2023-04-24T13:23:51;4.85;;;2.70;;
77220;SDS011;66217;50.004;8.266;2023-04-24T13:26:17;4.45;;;2.70;;
77220;SDS011;66217;50.004;8.266;2023-04-24T13:28:42;5.28;;;3.00;;
77220;SDS011;66217;50.004;8.266;2023-04-24T13:31:08;6.97;;;3.13;;
77220;SDS011;66217;50.004;8.266;2023-04-24T13:33:33;4.20;;;2.45;;
77220;SDS011;66217;50.004;8.266;2023-04-24T13:35:59;8.63;;;3.30;;
77220;SDS011;66217;50.004;8.266;2023-04-24T13:38:24;5.22;;;2.85;;
77220;SDS011;66217;50.004;8.266;2023-04-24T13:40:50;5.53;;;2.80;;
77220;SDS011;66217;50.004;8.266;2023-04-24T13:43:16;5.72;;;2.83;;
77220;SDS011;66217;50.004;8.266;2023-04-24T13:45:41;8.05;;;2.70;;
77220;SDS011;66217;50.004;8.266;2023-04-24T13:48:06;5.60;;;2.80;;
77220;SDS011;66217;50.004;8.266;2023-04-24T13:50:33;5.32;;;3.20;;
77220;SDS011;66217;50.004;8.266;2023-04-24T13:52:59;4.07;;;2.63;;
77220;SDS011;66217;50.004;8.266;2023-04-24T13:55:26;6.35;;;2.80;;
77220;SDS011;66217;50.004;8.266;2023-04-24T13:57:51;4.85;;;2.63;;
77220;SDS011;66217;50.004;8.266;2023-04-24T14:00:20;4.53;;;2.60;;
77220;SDS011;66217;50.004;8.266;2023-04-24T14:02:48;5.65;;;2.70;;
77220;SDS011;66217;50.004;8.266;2023-04-24T14:05:14;6.53;;;3.10;;
77220;SDS011;66217;50.004;8.266;2023-04-24T14:07:40;4.38;;;2.40;;
77220;SDS011;66217;50.004;8.266;2023-04-24T14:10:06;4.07;;;2.53;;
77220;SDS011;66217;50.004;8.266;2023-04-24T14:12:32;4.63;;;2.67;;
77220;SDS011;66217;50.004;8.266;2023-04-24T14:14:57;5.88;;;2.65;;
77220;SDS011;66217;50.004;8.266;2023-04-24T14:17:23;4.30;;;2.67;;
77220;SDS011;66217;50.004;8.266;2023-04-24T14:19:48;6.15;;;2.30;;
77220;SDS011;66217;50.004;8.266;2023-04-24T14:22:15;4.88;;;2.50;;
77220;SDS011;66217;50.004;8.266;2023-04-24T14:24:41;5.50;;;2.90;;
77220;SDS011;66217;50.004;8.266;2023-04-24T14:27:07;4.95;;;3.33;;
77220;SDS011;66217;50.004;8.266;2023-04-24T14:29:32;4.43;;;2.55;;
77220;SDS011;66217;50.004;8.266;2023-04-24T14:31:58;3.60;;;2.53;;
77220;SDS011;66217;50.004;8.266;2023-04-24T14:34:23;5.00;;;2.47;;
77220;SDS011;66217;50.004;8.266;2023-04-24T14:36:48;5.50;;;2.60;;
77220;SDS011;66217;50.004;8.266;2023-04-24T14:39:14;3.90;;;2.33;;
77220;SDS011;66217;50.004;8.266;2023-04-24T14:41:39;7.00;;;2.90;;
77220;SDS011;66217;50.004;8.266;2023-04-24T14:44:05;6.75;;;3.65;;
77220;SDS011;66217;50.004;8.266;2023-04-24T14:46:31;5.07;;;2.55;;
77220;SDS011;66217;50.004;8.266;2023-04-24T14:48:57;5.78;;;2.45;;
77220;SDS011;66217;50.004;8.266;2023-04-24T14:51:22;4.20;;;2.60;;
77220;SDS011;66217;50.004;8.266;2023-04-24T14:53:48;4.28;;;2.70;;